sensor_id;sensor_type;location;lat;lon;timestamp;P1;durP1;ratioP1;P2;durP2;ratioP2
826;SDS011;395;48.132;11.608;2022-11-18T00:01:05;2.03;;;0.90;;
826;SDS011;395;48.132;11.608;2022-11-18T00:03:32;1.90;;;1.60;;
826;SDS011;395;48.132;11.608;2022-11-18T00:05:58;1.20;;;1.10;;
826;SDS011;395;48.132;11.608;2022-11-18T00:08:24;1.40;;;1.20;;
826;SDS011;395;48.132;11.608;2022-11-18T00:10:51;1.77;;;1.20;;
826;SDS011;395;48.132;11.608;2022-11-18T00:13:18;1.30;;;0.80;;
826;SDS011;395;48.132;11.608;2022-11-18T00:16:04;1.17;;;0.87;;
826;SDS011;395;48.132;11.608;2022-11-18T00:18:36;0.93;;;0.83;;
826;SDS011;395;48.132;11.608;2022-11-18T00:21:04;2.53;;;0.90;;
826;SDS011;395;48.132;11.608;2022-11-18T00:23:31;1.10;;;0.80;;
826;SDS011;395;48.132;11.608;2022-11-18T00:26:02;1.00;;;0.80;;
826;SDS011;395;48.132;11.608;2022-11-18T00:28:28;1.03;;;0.73;;
826;SDS011;395;48.132;11.608;2022-11-18T00:30:59;1.50;;;0.93;;
826;SDS011;395;48.132;11.608;2022-11-18T00:33:29;1.33;;;0.90;;
826;SDS011;395;48.132;11.608;2022-11-18T00:35:55;1.00;;;0.87;;
826;SDS011;395;48.132;11.608;2022-11-18T00:38:21;1.90;;;1.00;;
826;SDS011;395;48.132;11.608;2022-11-18T00:40:48;1.43;;;0.80;;
826;SDS011;395;48.132;11.608;2022-11-18T00:43:13;0.73;;;0.73;;
826;SDS011;395;48.132;11.608;2022-11-18T00:45:41;1.80;;;0.83;;
826;SDS011;395;48.132;11.608;2022-11-18T00:48:07;1.33;;;0.90;;
826;SDS011;395;48.132;11.608;2022-11-18T00:50:32;2.43;;;0.70;;
826;SDS011;395;48.132;11.608;2022-11-18T00:52:58;2.30;;;1.00;;
826;SDS011;395;48.132;11.608;2022-11-18T00:55:24;0.83;;;0.80;;
826;SDS011;395;48.132;11.608;2022-11-18T00:57:50;0.70;;;0.60;;
826;SDS011;395;48.132;11.608;2022-11-18T01:00:15;1.00;;;0.80;;
826;SDS011;395;48.132;11.608;2022-11-18T01:02:42;0.70;;;0.40;;
826;SDS011;395;48.132;11.608;2022-11-18T01:05:07;0.90;;;0.80;;
826;SDS011;395;48.132;11.608;2022-11-18T01:07:33;1.30;;;0.73;;
826;SDS011;395;48.132;11.608;2022-11-18T01:09:59;0.70;;;0.70;;
826;SDS011;395;48.132;11.608;2022-11-18T01:12:24;0.90;;;0.67;;
826;SDS011;395;48.132;11.608;2022-11-18T01:15:08;0.90;;;0.60;;
826;SDS011;395;48.132;11.608;2022-11-18T01:17:34;0.63;;;0.63;;
826;SDS011;395;48.132;11.608;2022-11-18T01:20:00;0.80;;;0.80;;
826;SDS011;395;48.132;11.608;2022-11-18T01:22:25;0.87;;;0.60;;
826;SDS011;395;48.132;11.608;2022-11-18T01:24:51;0.80;;;0.70;;
826;SDS011;395;48.132;11.608;2022-11-18T01:27:17;0.73;;;0.73;;
826;SDS011;395;48.132;11.608;2022-11-18T01:29:42;1.53;;;0.93;;
826;SDS011;395;48.132;11.608;2022-11-18T01:32:08;2.40;;;0.60;;
826;SDS011;395;48.132;11.608;2022-11-18T01:34:34;0.80;;;0.77;;
826;SDS011;395;48.132;11.608;2022-11-18T01:36:59;1.00;;;0.80;;
826;SDS011;395;48.132;11.608;2022-11-18T01:39:25;0.70;;;0.70;;
826;SDS011;395;48.132;11.608;2022-11-18T01:41:51;1.27;;;0.63;;
826;SDS011;395;48.132;11.608;2022-11-18T01:47:16;0.70;;;0.70;;
826;SDS011;395;48.132;11.608;2022-11-18T01:49:42;1.00;;;0.73;;
826;SDS011;395;48.132;11.608;2022-11-18T01:52:09;0.90;;;0.80;;
826;SDS011;395;48.132;11.608;2022-11-18T01:54:36;1.10;;;0.80;;
826;SDS011;395;48.132;11.608;2022-11-18T01:57:07;1.23;;;1.10;;
826;SDS011;395;48.132;11.608;2022-11-18T01:59:38;2.10;;;1.13;;
826;SDS011;395;48.132;11.608;2022-11-18T02:02:07;1.33;;;1.23;;
826;SDS011;395;48.132;11.608;2022-11-18T02:04:36;2.40;;;1.20;;
826;SDS011;395;48.132;11.608;2022-11-18T02:07:04;1.70;;;1.00;;
826;SDS011;395;48.132;11.608;2022-11-18T02:09:32;1.20;;;1.00;;
826;SDS011;395;48.132;11.608;2022-11-18T02:11:58;1.63;;;1.10;;
826;SDS011;395;48.132;11.608;2022-11-18T02:14:28;1.50;;;1.40;;
826;SDS011;395;48.132;11.608;2022-11-18T02:17:16;1.97;;;1.10;;
826;SDS011;395;48.132;11.608;2022-11-18T02:30:57;1.57;;;1.10;;
826;SDS011;395;48.132;11.608;2022-11-18T02:33:46;1.10;;;1.00;;
826;SDS011;395;48.132;11.608;2022-11-18T02:36:19;2.60;;;1.50;;
826;SDS011;395;48.132;11.608;2022-11-18T02:38:51;1.63;;;1.30;;
826;SDS011;395;48.132;11.608;2022-11-18T02:41:24;1.43;;;1.33;;
826;SDS011;395;48.132;11.608;2022-11-18T02:43:57;3.43;;;1.57;;
826;SDS011;395;48.132;11.608;2022-11-18T02:46:27;1.30;;;1.10;;
826;SDS011;395;48.132;11.608;2022-11-18T02:48:57;1.23;;;1.13;;
826;SDS011;395;48.132;11.608;2022-11-18T02:51:26;1.93;;;1.83;;
826;SDS011;395;48.132;11.608;2022-11-18T02:53:55;1.87;;;1.40;;
826;SDS011;395;48.132;11.608;2022-11-18T02:56:26;1.37;;;1.20;;
826;SDS011;395;48.132;11.608;2022-11-18T02:58:52;1.70;;;1.60;;
826;SDS011;395;48.132;11.608;2022-11-18T03:01:19;2.13;;;1.43;;
826;SDS011;395;48.132;11.608;2022-11-18T03:03:51;1.70;;;1.60;;
826;SDS011;395;48.132;11.608;2022-11-18T03:09:07;1.10;;;1.00;;
826;SDS011;395;48.132;11.608;2022-11-18T03:17:22;1.30;;;0.90;;
826;SDS011;395;48.132;11.608;2022-11-18T03:25:23;0.77;;;0.60;;
826;SDS011;395;48.132;11.608;2022-11-18T03:28:13;3.03;;;0.60;;
826;SDS011;395;48.132;11.608;2022-11-18T03:30:44;0.80;;;0.40;;
826;SDS011;395;48.132;11.608;2022-11-18T03:33:16;1.43;;;0.47;;
826;SDS011;395;48.132;11.608;2022-11-18T03:35:46;1.27;;;0.30;;
826;SDS011;395;48.132;11.608;2022-11-18T03:38:15;0.60;;;0.47;;
826;SDS011;395;48.132;11.608;2022-11-18T03:40:49;3.07;;;0.70;;
826;SDS011;395;48.132;11.608;2022-11-18T03:43:20;0.80;;;0.40;;
826;SDS011;395;48.132;11.608;2022-11-18T03:45:53;0.93;;;0.50;;
826;SDS011;395;48.132;11.608;2022-11-18T03:48:26;4.43;;;0.57;;
826;SDS011;395;48.132;11.608;2022-11-18T03:50:56;0.60;;;0.60;;
826;SDS011;395;48.132;11.608;2022-11-18T03:53:32;0.80;;;0.47;;
826;SDS011;395;48.132;11.608;2022-11-18T03:56:12;1.63;;;0.50;;
826;SDS011;395;48.132;11.608;2022-11-18T03:59:02;0.50;;;0.37;;
826;SDS011;395;48.132;11.608;2022-11-18T04:01:56;0.70;;;0.60;;
826;SDS011;395;48.132;11.608;2022-11-18T04:04:28;1.30;;;0.53;;
826;SDS011;395;48.132;11.608;2022-11-18T04:10:01;0.50;;;0.40;;
826;SDS011;395;48.132;11.608;2022-11-18T04:13:00;1.23;;;0.37;;
826;SDS011;395;48.132;11.608;2022-11-18T04:15:26;2.80;;;0.50;;
826;SDS011;395;48.132;11.608;2022-11-18T04:17:54;0.50;;;0.50;;
826;SDS011;395;48.132;11.608;2022-11-18T04:20:20;0.90;;;0.30;;
826;SDS011;395;48.132;11.608;2022-11-18T04:22:50;0.43;;;0.40;;
826;SDS011;395;48.132;11.608;2022-11-18T04:25:19;0.50;;;0.30;;
826;SDS011;395;48.132;11.608;2022-11-18T04:27:44;0.93;;;0.23;;
826;SDS011;395;48.132;11.608;2022-11-18T04:30:10;0.40;;;0.30;;
826;SDS011;395;48.132;11.608;2022-11-18T04:32:36;0.40;;;0.30;;
826;SDS011;395;48.132;11.608;2022-11-18T04:35:02;0.50;;;0.40;;
826;SDS011;395;48.132;11.608;2022-11-18T04:37:28;0.63;;;0.30;;
826;SDS011;395;48.132;11.608;2022-11-18T04:39:54;0.53;;;0.37;;
826;SDS011;395;48.132;11.608;2022-11-18T04:42:19;2.07;;;0.47;;
826;SDS011;395;48.132;11.608;2022-11-18T04:44:45;0.40;;;0.30;;
826;SDS011;395;48.132;11.608;2022-11-18T04:47:11;0.47;;;0.40;;
826;SDS011;395;48.132;11.608;2022-11-18T04:49:37;0.40;;;0.37;;
826;SDS011;395;48.132;11.608;2022-11-18T04:52:03;0.83;;;0.30;;
826;SDS011;395;48.132;11.608;2022-11-18T04:54:29;1.23;;;0.50;;
826;SDS011;395;48.132;11.608;2022-11-18T04:56:54;0.80;;;0.63;;
826;SDS011;395;48.132;11.608;2022-11-18T04:59:21;1.83;;;1.03;;
826;SDS011;395;48.132;11.608;2022-11-18T05:01:49;1.07;;;0.70;;
826;SDS011;395;48.132;11.608;2022-11-18T05:04:16;0.80;;;0.80;;
826;SDS011;395;48.132;11.608;2022-11-18T05:06:43;1.47;;;1.00;;
826;SDS011;395;48.132;11.608;2022-11-18T05:09:09;0.73;;;0.73;;
826;SDS011;395;48.132;11.608;2022-11-18T05:11:35;1.20;;;0.90;;
826;SDS011;395;48.132;11.608;2022-11-18T05:14:20;1.53;;;1.30;;
826;SDS011;395;48.132;11.608;2022-11-18T05:16:45;1.83;;;1.23;;
826;SDS011;395;48.132;11.608;2022-11-18T05:19:11;1.50;;;1.40;;
826;SDS011;395;48.132;11.608;2022-11-18T05:21:37;1.67;;;1.50;;
826;SDS011;395;48.132;11.608;2022-11-18T05:24:03;0.80;;;0.80;;
826;SDS011;395;48.132;11.608;2022-11-18T05:26:29;0.80;;;0.50;;
826;SDS011;395;48.132;11.608;2022-11-18T05:28:55;1.00;;;0.60;;
826;SDS011;395;48.132;11.608;2022-11-18T05:31:21;1.07;;;0.30;;
826;SDS011;395;48.132;11.608;2022-11-18T05:33:47;0.40;;;0.20;;
826;SDS011;395;48.132;11.608;2022-11-18T05:36:14;1.23;;;0.27;;
826;SDS011;395;48.132;11.608;2022-11-18T05:38:41;0.40;;;0.30;;
826;SDS011;395;48.132;11.608;2022-11-18T05:41:07;0.40;;;0.30;;
826;SDS011;395;48.132;11.608;2022-11-18T05:43:34;1.17;;;0.53;;
826;SDS011;395;48.132;11.608;2022-11-18T05:46:01;2.13;;;0.50;;
826;SDS011;395;48.132;11.608;2022-11-18T05:48:28;0.60;;;0.50;;
826;SDS011;395;48.132;11.608;2022-11-18T05:50:54;0.60;;;0.47;;
826;SDS011;395;48.132;11.608;2022-11-18T05:53:21;0.40;;;0.30;;
826;SDS011;395;48.132;11.608;2022-11-18T05:55:59;1.00;;;0.60;;
826;SDS011;395;48.132;11.608;2022-11-18T05:58:31;0.40;;;0.40;;
826;SDS011;395;48.132;11.608;2022-11-18T06:00:57;0.60;;;0.50;;
826;SDS011;395;48.132;11.608;2022-11-18T06:03:28;0.40;;;0.37;;
826;SDS011;395;48.132;11.608;2022-11-18T06:05:55;0.53;;;0.37;;
826;SDS011;395;48.132;11.608;2022-11-18T06:08:24;0.50;;;0.30;;
826;SDS011;395;48.132;11.608;2022-11-18T06:10:53;0.50;;;0.27;;
826;SDS011;395;48.132;11.608;2022-11-18T06:13:21;0.40;;;0.30;;
826;SDS011;395;48.132;11.608;2022-11-18T06:15:51;0.47;;;0.37;;
826;SDS011;395;48.132;11.608;2022-11-18T06:18:21;0.77;;;0.47;;
826;SDS011;395;48.132;11.608;2022-11-18T06:20:51;0.57;;;0.40;;
826;SDS011;395;48.132;11.608;2022-11-18T06:23:18;0.53;;;0.40;;
826;SDS011;395;48.132;11.608;2022-11-18T06:25:44;0.40;;;0.30;;
826;SDS011;395;48.132;11.608;2022-11-18T06:28:11;0.77;;;0.30;;
826;SDS011;395;48.132;11.608;2022-11-18T06:30:39;0.63;;;0.30;;
826;SDS011;395;48.132;11.608;2022-11-18T06:33:05;0.40;;;0.30;;
826;SDS011;395;48.132;11.608;2022-11-18T06:35:31;0.50;;;0.37;;
826;SDS011;395;48.132;11.608;2022-11-18T06:37:56;0.60;;;0.30;;
826;SDS011;395;48.132;11.608;2022-11-18T06:40:22;0.60;;;0.40;;
826;SDS011;395;48.132;11.608;2022-11-18T06:42:48;0.80;;;0.30;;
826;SDS011;395;48.132;11.608;2022-11-18T06:45:32;2.30;;;0.40;;
826;SDS011;395;48.132;11.608;2022-11-18T06:47:58;0.50;;;0.30;;
826;SDS011;395;48.132;11.608;2022-11-18T06:50:25;0.70;;;0.40;;
826;SDS011;395;48.132;11.608;2022-11-18T06:52:51;0.53;;;0.43;;
826;SDS011;395;48.132;11.608;2022-11-18T06:55:17;1.10;;;0.50;;
826;SDS011;395;48.132;11.608;2022-11-18T06:57:43;1.23;;;0.60;;
826;SDS011;395;48.132;11.608;2022-11-18T07:00:09;1.43;;;0.40;;
826;SDS011;395;48.132;11.608;2022-11-18T07:02:35;0.50;;;0.30;;
826;SDS011;395;48.132;11.608;2022-11-18T07:05:01;0.40;;;0.30;;
826;SDS011;395;48.132;11.608;2022-11-18T07:07:28;0.60;;;0.40;;
826;SDS011;395;48.132;11.608;2022-11-18T07:09:53;0.60;;;0.30;;
826;SDS011;395;48.132;11.608;2022-11-18T07:12:19;1.00;;;0.50;;
826;SDS011;395;48.132;11.608;2022-11-18T07:14:45;1.00;;;0.50;;
826;SDS011;395;48.132;11.608;2022-11-18T07:17:10;2.33;;;0.40;;
826;SDS011;395;48.132;11.608;2022-11-18T07:19:37;0.50;;;0.37;;
826;SDS011;395;48.132;11.608;2022-11-18T07:22:04;0.93;;;0.40;;
826;SDS011;395;48.132;11.608;2022-11-18T07:24:32;0.60;;;0.30;;
826;SDS011;395;48.132;11.608;2022-11-18T07:26:58;1.23;;;0.60;;
826;SDS011;395;48.132;11.608;2022-11-18T07:29:24;0.80;;;0.50;;
826;SDS011;395;48.132;11.608;2022-11-18T07:31:49;2.80;;;0.50;;
826;SDS011;395;48.132;11.608;2022-11-18T07:34:15;2.00;;;0.50;;
826;SDS011;395;48.132;11.608;2022-11-18T07:36:41;0.73;;;0.50;;
826;SDS011;395;48.132;11.608;2022-11-18T07:39:07;2.20;;;0.77;;
826;SDS011;395;48.132;11.608;2022-11-18T07:41:33;0.60;;;0.33;;
826;SDS011;395;48.132;11.608;2022-11-18T07:44:00;1.03;;;0.57;;
826;SDS011;395;48.132;11.608;2022-11-18T07:46:34;1.03;;;0.60;;
826;SDS011;395;48.132;11.608;2022-11-18T07:49:02;0.77;;;0.47;;
826;SDS011;395;48.132;11.608;2022-11-18T07:51:31;0.50;;;0.40;;
826;SDS011;395;48.132;11.608;2022-11-18T07:53:59;0.60;;;0.40;;
826;SDS011;395;48.132;11.608;2022-11-18T07:56:25;0.57;;;0.57;;
826;SDS011;395;48.132;11.608;2022-11-18T07:58:51;2.60;;;0.90;;
826;SDS011;395;48.132;11.608;2022-11-18T08:01:19;3.07;;;0.60;;
826;SDS011;395;48.132;11.608;2022-11-18T08:03:46;1.10;;;0.50;;
826;SDS011;395;48.132;11.608;2022-11-18T08:06:12;1.70;;;0.73;;
826;SDS011;395;48.132;11.608;2022-11-18T08:08:40;0.40;;;0.40;;
826;SDS011;395;48.132;11.608;2022-11-18T08:11:07;0.50;;;0.50;;
826;SDS011;395;48.132;11.608;2022-11-18T08:13:35;0.60;;;0.50;;
826;SDS011;395;48.132;11.608;2022-11-18T08:16:03;0.60;;;0.50;;
826;SDS011;395;48.132;11.608;2022-11-18T08:18:30;0.60;;;0.30;;
826;SDS011;395;48.132;11.608;2022-11-18T08:21:03;0.90;;;0.60;;
826;SDS011;395;48.132;11.608;2022-11-18T08:23:29;1.33;;;0.60;;
826;SDS011;395;48.132;11.608;2022-11-18T08:26:14;1.17;;;0.80;;
826;SDS011;395;48.132;11.608;2022-11-18T08:28:41;1.30;;;0.70;;
826;SDS011;395;48.132;11.608;2022-11-18T08:31:17;0.93;;;0.50;;
826;SDS011;395;48.132;11.608;2022-11-18T08:33:52;1.57;;;0.77;;
826;SDS011;395;48.132;11.608;2022-11-18T08:36:20;0.80;;;0.43;;
826;SDS011;395;48.132;11.608;2022-11-18T08:38:47;0.90;;;0.60;;
826;SDS011;395;48.132;11.608;2022-11-18T08:41:13;0.67;;;0.53;;
826;SDS011;395;48.132;11.608;2022-11-18T08:43:42;1.00;;;0.73;;
826;SDS011;395;48.132;11.608;2022-11-18T08:46:08;0.47;;;0.47;;
826;SDS011;395;48.132;11.608;2022-11-18T08:48:33;0.60;;;0.57;;
826;SDS011;395;48.132;11.608;2022-11-18T08:50:59;1.27;;;0.57;;
826;SDS011;395;48.132;11.608;2022-11-18T08:53:25;2.30;;;0.63;;
826;SDS011;395;48.132;11.608;2022-11-18T08:55:58;1.90;;;0.60;;
826;SDS011;395;48.132;11.608;2022-11-18T08:58:25;0.50;;;0.50;;
826;SDS011;395;48.132;11.608;2022-11-18T09:00:52;0.90;;;0.80;;
826;SDS011;395;48.132;11.608;2022-11-18T09:03:17;2.90;;;0.83;;
826;SDS011;395;48.132;11.608;2022-11-18T09:05:43;0.80;;;0.80;;
826;SDS011;395;48.132;11.608;2022-11-18T09:08:09;1.17;;;0.80;;
826;SDS011;395;48.132;11.608;2022-11-18T09:10:35;0.93;;;0.80;;
826;SDS011;395;48.132;11.608;2022-11-18T09:13:01;0.90;;;0.80;;
826;SDS011;395;48.132;11.608;2022-11-18T09:15:27;2.10;;;1.33;;
826;SDS011;395;48.132;11.608;2022-11-18T09:17:55;1.37;;;0.70;;
826;SDS011;395;48.132;11.608;2022-11-18T09:20:21;1.60;;;0.70;;
826;SDS011;395;48.132;11.608;2022-11-18T09:22:47;1.27;;;1.00;;
826;SDS011;395;48.132;11.608;2022-11-18T09:25:13;1.33;;;1.00;;
826;SDS011;395;48.132;11.608;2022-11-18T09:27:39;1.57;;;1.17;;
826;SDS011;395;48.132;11.608;2022-11-18T09:30:05;1.07;;;0.97;;
826;SDS011;395;48.132;11.608;2022-11-18T09:32:31;1.00;;;0.90;;
826;SDS011;395;48.132;11.608;2022-11-18T09:34:58;0.80;;;0.80;;
826;SDS011;395;48.132;11.608;2022-11-18T09:37:23;1.27;;;0.90;;
826;SDS011;395;48.132;11.608;2022-11-18T09:39:49;3.30;;;1.30;;
826;SDS011;395;48.132;11.608;2022-11-18T09:45:21;1.80;;;1.10;;
826;SDS011;395;48.132;11.608;2022-11-18T09:47:50;1.23;;;0.90;;
826;SDS011;395;48.132;11.608;2022-11-18T09:50:17;2.70;;;0.60;;
826;SDS011;395;48.132;11.608;2022-11-18T09:52:58;0.93;;;0.83;;
826;SDS011;395;48.132;11.608;2022-11-18T09:55:28;1.00;;;0.73;;
826;SDS011;395;48.132;11.608;2022-11-18T09:57:55;1.27;;;0.67;;
826;SDS011;395;48.132;11.608;2022-11-18T10:00:24;1.07;;;0.40;;
826;SDS011;395;48.132;11.608;2022-11-18T10:02:55;1.07;;;0.50;;
826;SDS011;395;48.132;11.608;2022-11-18T10:05:23;0.80;;;0.53;;
826;SDS011;395;48.132;11.608;2022-11-18T10:07:59;1.10;;;0.47;;
826;SDS011;395;48.132;11.608;2022-11-18T10:21:52;0.60;;;0.50;;
826;SDS011;395;48.132;11.608;2022-11-18T10:24:29;0.90;;;0.60;;
826;SDS011;395;48.132;11.608;2022-11-18T10:27:06;3.07;;;1.10;;
826;SDS011;395;48.132;11.608;2022-11-18T10:29:34;1.60;;;0.60;;
826;SDS011;395;48.132;11.608;2022-11-18T10:32:02;1.40;;;0.60;;
826;SDS011;395;48.132;11.608;2022-11-18T10:34:49;0.77;;;0.40;;
826;SDS011;395;48.132;11.608;2022-11-18T10:37:32;0.50;;;0.40;;
826;SDS011;395;48.132;11.608;2022-11-18T10:40:01;1.27;;;0.40;;
826;SDS011;395;48.132;11.608;2022-11-18T10:47:40;0.60;;;0.50;;
826;SDS011;395;48.132;11.608;2022-11-18T10:56:03;3.90;;;0.60;;
826;SDS011;395;48.132;11.608;2022-11-18T10:58:31;0.60;;;0.40;;
826;SDS011;395;48.132;11.608;2022-11-18T11:08:51;0.50;;;0.50;;
826;SDS011;395;48.132;11.608;2022-11-18T11:11:38;1.87;;;0.73;;
826;SDS011;395;48.132;11.608;2022-11-18T11:14:05;0.80;;;0.60;;
826;SDS011;395;48.132;11.608;2022-11-18T11:22:19;1.83;;;0.90;;
826;SDS011;395;48.132;11.608;2022-11-18T11:24:45;2.53;;;1.13;;
826;SDS011;395;48.132;11.608;2022-11-18T11:32:44;1.03;;;0.60;;
826;SDS011;395;48.132;11.608;2022-11-18T11:38:19;1.83;;;0.90;;
826;SDS011;395;48.132;11.608;2022-11-18T11:41:18;1.10;;;0.90;;
826;SDS011;395;48.132;11.608;2022-11-18T11:44:31;1.60;;;1.10;;
826;SDS011;395;48.132;11.608;2022-11-18T11:56:37;1.83;;;1.60;;
826;SDS011;395;48.132;11.608;2022-11-18T12:04:56;1.37;;;0.60;;
826;SDS011;395;48.132;11.608;2022-11-18T12:07:32;1.13;;;0.63;;
826;SDS011;395;48.132;11.608;2022-11-18T12:18:51;1.40;;;0.87;;
826;SDS011;395;48.132;11.608;2022-11-18T12:26:47;0.73;;;0.73;;
826;SDS011;395;48.132;11.608;2022-11-18T12:29:23;1.53;;;0.90;;
826;SDS011;395;48.132;11.608;2022-11-18T12:34:26;2.07;;;1.00;;
826;SDS011;395;48.132;11.608;2022-11-18T12:42:36;1.03;;;0.63;;
826;SDS011;395;48.132;11.608;2022-11-18T12:50:54;1.53;;;0.93;;
826;SDS011;395;48.132;11.608;2022-11-18T12:53:36;0.80;;;0.43;;
826;SDS011;395;48.132;11.608;2022-11-18T12:58:46;0.90;;;0.80;;
826;SDS011;395;48.132;11.608;2022-11-18T13:01:19;0.83;;;0.40;;
826;SDS011;395;48.132;11.608;2022-11-18T13:03:50;2.57;;;0.50;;
826;SDS011;395;48.132;11.608;2022-11-18T13:08:42;0.80;;;0.70;;
826;SDS011;395;48.132;11.608;2022-11-18T13:11:10;2.00;;;0.77;;
826;SDS011;395;48.132;11.608;2022-11-18T13:13:58;1.00;;;0.53;;
826;SDS011;395;48.132;11.608;2022-11-18T13:16:45;0.60;;;0.50;;
826;SDS011;395;48.132;11.608;2022-11-18T13:19:30;1.73;;;0.95;;
826;SDS011;395;48.132;11.608;2022-11-18T13:21:56;1.10;;;0.80;;
826;SDS011;395;48.132;11.608;2022-11-18T13:24:43;2.10;;;0.83;;
826;SDS011;395;48.132;11.608;2022-11-18T13:27:15;1.02;;;0.68;;
826;SDS011;395;48.132;11.608;2022-11-18T13:29:49;1.27;;;0.50;;
826;SDS011;395;48.132;11.608;2022-11-18T13:32:23;0.50;;;0.40;;
826;SDS011;395;48.132;11.608;2022-11-18T13:34:57;0.70;;;0.55;;
826;SDS011;395;48.132;11.608;2022-11-18T13:38:02;0.82;;;0.47;;
826;SDS011;395;48.132;11.608;2022-11-18T13:40:29;1.50;;;0.60;;
826;SDS011;395;48.132;11.608;2022-11-18T13:43:02;0.70;;;0.50;;
826;SDS011;395;48.132;11.608;2022-11-18T13:45:28;2.00;;;0.57;;
826;SDS011;395;48.132;11.608;2022-11-18T13:50:36;1.75;;;0.70;;
826;SDS011;395;48.132;11.608;2022-11-18T13:55:49;0.80;;;0.70;;
826;SDS011;395;48.132;11.608;2022-11-18T14:00:53;0.90;;;0.90;;
826;SDS011;395;48.132;11.608;2022-11-18T14:06:01;2.70;;;0.57;;
826;SDS011;395;48.132;11.608;2022-11-18T14:08:34;4.53;;;1.23;;
826;SDS011;395;48.132;11.608;2022-11-18T14:11:01;1.07;;;0.97;;
826;SDS011;395;48.132;11.608;2022-11-18T14:13:29;1.73;;;1.00;;
826;SDS011;395;48.132;11.608;2022-11-18T14:16:42;1.33;;;1.23;;
826;SDS011;395;48.132;11.608;2022-11-18T14:18:44;3.70;;;2.33;;
826;SDS011;395;48.132;11.608;2022-11-18T14:21:12;4.27;;;3.00;;
826;SDS011;395;48.132;11.608;2022-11-18T14:23:41;3.53;;;2.83;;
826;SDS011;395;48.132;11.608;2022-11-18T14:26:08;4.00;;;2.67;;
826;SDS011;395;48.132;11.608;2022-11-18T14:28:35;1.83;;;1.60;;
826;SDS011;395;48.132;11.608;2022-11-18T14:33:36;1.65;;;1.55;;
826;SDS011;395;48.132;11.608;2022-11-18T14:38:46;2.23;;;1.80;;
826;SDS011;395;48.132;11.608;2022-11-18T14:41:14;2.10;;;1.90;;
826;SDS011;395;48.132;11.608;2022-11-18T14:44:01;2.60;;;1.63;;
826;SDS011;395;48.132;11.608;2022-11-18T14:46:26;2.60;;;1.40;;
826;SDS011;395;48.132;11.608;2022-11-18T14:48:52;2.33;;;1.60;;
826;SDS011;395;48.132;11.608;2022-11-18T14:51:18;1.43;;;1.33;;
826;SDS011;395;48.132;11.608;2022-11-18T14:53:44;1.20;;;1.10;;
826;SDS011;395;48.132;11.608;2022-11-18T14:56:29;1.30;;;1.20;;
826;SDS011;395;48.132;11.608;2022-11-18T14:58:56;2.17;;;1.27;;
826;SDS011;395;48.132;11.608;2022-11-18T15:01:22;1.52;;;1.42;;
826;SDS011;395;48.132;11.608;2022-11-18T15:03:52;1.27;;;1.17;;
826;SDS011;395;48.132;11.608;2022-11-18T15:06:19;1.50;;;1.30;;
826;SDS011;395;48.132;11.608;2022-11-18T15:08:46;1.48;;;1.38;;
826;SDS011;395;48.132;11.608;2022-11-18T15:11:14;1.63;;;0.80;;
826;SDS011;395;48.132;11.608;2022-11-18T15:13:40;1.30;;;1.00;;
826;SDS011;395;48.132;11.608;2022-11-18T15:16:10;1.33;;;0.90;;
826;SDS011;395;48.132;11.608;2022-11-18T15:18:40;1.10;;;1.00;;
826;SDS011;395;48.132;11.608;2022-11-18T15:21:06;1.80;;;0.83;;
826;SDS011;395;48.132;11.608;2022-11-18T15:23:32;1.33;;;0.87;;
826;SDS011;395;48.132;11.608;2022-11-18T15:25:57;1.90;;;0.90;;
826;SDS011;395;48.132;11.608;2022-11-18T15:28:23;1.07;;;0.83;;
826;SDS011;395;48.132;11.608;2022-11-18T15:30:49;1.23;;;0.90;;
826;SDS011;395;48.132;11.608;2022-11-18T15:33:15;2.13;;;1.10;;
826;SDS011;395;48.132;11.608;2022-11-18T15:35:41;1.27;;;0.80;;
826;SDS011;395;48.132;11.608;2022-11-18T15:38:09;0.80;;;0.80;;
826;SDS011;395;48.132;11.608;2022-11-18T15:40:35;0.90;;;0.90;;
826;SDS011;395;48.132;11.608;2022-11-18T15:43:03;1.23;;;1.10;;
826;SDS011;395;48.132;11.608;2022-11-18T15:45:29;2.73;;;1.30;;
826;SDS011;395;48.132;11.608;2022-11-18T15:47:54;1.40;;;0.90;;
826;SDS011;395;48.132;11.608;2022-11-18T15:50:20;1.83;;;1.10;;
826;SDS011;395;48.132;11.608;2022-11-18T15:52:46;1.67;;;1.20;;
826;SDS011;395;48.132;11.608;2022-11-18T15:55:11;1.40;;;1.30;;
826;SDS011;395;48.132;11.608;2022-11-18T15:57:37;1.70;;;1.30;;
826;SDS011;395;48.132;11.608;2022-11-18T16:00:03;1.40;;;1.30;;
826;SDS011;395;48.132;11.608;2022-11-18T16:02:29;1.70;;;1.40;;
826;SDS011;395;48.132;11.608;2022-11-18T16:04:55;2.37;;;2.00;;
826;SDS011;395;48.132;11.608;2022-11-18T16:07:20;2.17;;;1.97;;
826;SDS011;395;48.132;11.608;2022-11-18T16:09:46;1.90;;;1.73;;
826;SDS011;395;48.132;11.608;2022-11-18T16:12:31;2.43;;;1.70;;
826;SDS011;395;48.132;11.608;2022-11-18T16:15:12;2.07;;;1.50;;
826;SDS011;395;48.132;11.608;2022-11-18T16:18:00;3.67;;;1.60;;
826;SDS011;395;48.132;11.608;2022-11-18T16:20:26;1.60;;;1.50;;
826;SDS011;395;48.132;11.608;2022-11-18T16:22:52;1.80;;;1.70;;
826;SDS011;395;48.132;11.608;2022-11-18T16:25:20;2.45;;;1.83;;
826;SDS011;395;48.132;11.608;2022-11-18T16:27:49;1.63;;;1.53;;
826;SDS011;395;48.132;11.608;2022-11-18T16:30:15;2.73;;;2.10;;
826;SDS011;395;48.132;11.608;2022-11-18T16:33:00;1.73;;;1.63;;
826;SDS011;395;48.132;11.608;2022-11-18T16:35:26;2.20;;;2.00;;
826;SDS011;395;48.132;11.608;2022-11-18T16:37:52;2.27;;;1.87;;
826;SDS011;395;48.132;11.608;2022-11-18T16:40:18;2.00;;;1.80;;
826;SDS011;395;48.132;11.608;2022-11-18T16:42:47;2.37;;;1.90;;
826;SDS011;395;48.132;11.608;2022-11-18T16:45:15;3.63;;;1.95;;
826;SDS011;395;48.132;11.608;2022-11-18T16:47:41;2.30;;;1.90;;
826;SDS011;395;48.132;11.608;2022-11-18T16:50:07;3.40;;;2.20;;
826;SDS011;395;48.132;11.608;2022-11-18T16:52:33;2.10;;;1.70;;
826;SDS011;395;48.132;11.608;2022-11-18T16:54:59;2.53;;;2.30;;
826;SDS011;395;48.132;11.608;2022-11-18T16:57:25;4.03;;;1.83;;
826;SDS011;395;48.132;11.608;2022-11-18T16:59:51;1.90;;;1.70;;
826;SDS011;395;48.132;11.608;2022-11-18T17:02:17;2.20;;;2.00;;
826;SDS011;395;48.132;11.608;2022-11-18T17:04:45;2.75;;;2.20;;
826;SDS011;395;48.132;11.608;2022-11-18T17:07:11;2.43;;;2.23;;
826;SDS011;395;48.132;11.608;2022-11-18T17:09:37;3.70;;;2.10;;
826;SDS011;395;48.132;11.608;2022-11-18T17:12:03;2.30;;;1.90;;
826;SDS011;395;48.132;11.608;2022-11-18T17:14:29;2.27;;;1.77;;
826;SDS011;395;48.132;11.608;2022-11-18T17:16:55;2.10;;;1.90;;
826;SDS011;395;48.132;11.608;2022-11-18T17:19:22;4.17;;;2.40;;
826;SDS011;395;48.132;11.608;2022-11-18T17:21:51;2.13;;;1.93;;
826;SDS011;395;48.132;11.608;2022-11-18T17:24:18;3.33;;;2.35;;
826;SDS011;395;48.132;11.608;2022-11-18T17:26:45;2.10;;;1.90;;
826;SDS011;395;48.132;11.608;2022-11-18T17:29:12;2.50;;;2.30;;
826;SDS011;395;48.132;11.608;2022-11-18T17:31:38;3.23;;;2.70;;
826;SDS011;395;48.132;11.608;2022-11-18T17:34:05;3.23;;;2.50;;
826;SDS011;395;48.132;11.608;2022-11-18T17:36:33;2.67;;;2.47;;
826;SDS011;395;48.132;11.608;2022-11-18T17:38:59;2.00;;;1.77;;
826;SDS011;395;48.132;11.608;2022-11-18T17:41:25;2.88;;;2.60;;
826;SDS011;395;48.132;11.608;2022-11-18T17:44:11;3.65;;;3.35;;
826;SDS011;395;48.132;11.608;2022-11-18T17:46:38;4.60;;;3.47;;
826;SDS011;395;48.132;11.608;2022-11-18T17:49:05;5.03;;;3.07;;
826;SDS011;395;48.132;11.608;2022-11-18T17:51:35;3.27;;;2.90;;
826;SDS011;395;48.132;11.608;2022-11-18T17:54:00;3.40;;;3.10;;
826;SDS011;395;48.132;11.608;2022-11-18T17:56:26;4.73;;;2.93;;
826;SDS011;395;48.132;11.608;2022-11-18T17:58:52;5.23;;;2.70;;
826;SDS011;395;48.132;11.608;2022-11-18T18:01:18;3.80;;;3.40;;
826;SDS011;395;48.132;11.608;2022-11-18T18:03:45;3.80;;;3.30;;
826;SDS011;395;48.132;11.608;2022-11-18T18:06:17;2.80;;;2.60;;